Time;durP1;ratioP1;P1;durP2;ratioP2;P2;SDS_P1;SDS_P2;PMS_P1;PMS_P2;Temp;Humidity;BMP_temperature;BMP_pressure;BME280_temperature;BME280_humidity;BME280_pressure;Samples;Min_cycle;Max_cycle;Signal;HPM_P1;HPM_P2
2024/02/11 00:00:28;;;;;;;3.58;2.45;;;22.30;99.90;;;;;;5013197;28;20057;-61
2024/02/11 00:02:55;;;;;;;3.83;2.13;;;22.30;99.90;;;;;;5013048;28;20051;-61
2024/02/11 00:05:21;;;;;;;;;;;22.30;99.90;;;;;;5012358;28;20034;-59
2024/02/11 00:07:48;;;;;;;5.13;2.60;;;22.30;99.90;;;;;;5012812;28;20011;-57
2024/02/11 00:10:14;;;;;;;5.13;2.35;;;22.30;99.90;;;;;;5013090;28;20022;-59
2024/02/11 00:12:40;;;;;;;4.22;2.40;;;22.20;99.90;;;;;;5011831;28;20049;-58
2024/02/11 00:15:08;;;;;;;3.50;2.03;;;22.30;99.90;;;;;;5011891;28;20088;-61
2024/02/11 00:17:34;;;;;;;;;;;22.30;99.90;;;;;;5013436;28;20049;-60
2024/02/11 00:20:01;;;;;;;4.05;1.90;;;22.20;99.90;;;;;;5013318;28;19935;-58
2024/02/11 00:22:27;;;;;;;4.82;2.00;;;22.20;99.90;;;;;;5011157;28;20026;-60
2024/02/11 00:24:53;;;;;;;3.30;1.85;;;22.20;99.90;;;;;;5012574;28;20515;-60
2024/02/11 00:27:20;;;;;;;3.87;1.67;;;22.20;99.90;;;;;;5012726;28;20105;-57
2024/02/11 00:29:46;;;;;;;3.75;2.05;;;22.20;99.90;;;;;;5012529;28;20029;-57
2024/02/11 00:32:12;;;;;;;3.20;1.90;;;22.20;99.90;;;;;;5012773;28;20026;-56
2024/02/11 00:34:38;;;;;;;3.40;1.60;;;22.20;99.90;;;;;;5013035;28;20101;-57
2024/02/11 00:37:06;;;;;;;3.60;2.30;;;22.20;99.90;;;;;;5012667;28;20477;-61
2024/02/11 00:39:35;;;;;;;4.43;1.90;;;22.20;99.90;;;;;;5012520;28;20050;-60
2024/02/11 00:42:01;;;;;;;3.83;2.00;;;22.20;99.90;;;;;;5012721;28;20519;-60
2024/02/11 00:44:26;;;;;;;5.88;2.25;;;22.20;99.90;;;;;;5011068;28;20037;-59
2024/02/11 00:46:52;;;;;;;3.55;2.30;;;22.20;99.90;;;;;;5012520;28;20474;-56
2024/02/11 00:49:18;;;;;;;4.68;2.08;;;22.20;99.90;;;;;;5012119;28;20446;-55
2024/02/11 00:51:44;;;;;;;3.40;1.92;;;22.10;99.90;;;;;;5010886;28;20018;-60
2024/02/11 00:54:10;;;;;;;3.47;1.90;;;22.20;99.90;;;;;;4994960;28;20058;-59
2024/02/11 00:56:38;;;;;;;3.53;1.85;;;22.10;99.90;;;;;;5011390;28;20018;-57
2024/02/11 00:59:04;;;;;;;3.25;1.60;;;22.10;99.90;;;;;;5012033;28;20030;-56
2024/02/11 01:01:30;;;;;;;3.15;1.70;;;22.10;99.90;;;;;;5005359;28;20044;-60
2024/02/11 01:03:58;;;;;;;2.05;1.38;;;22.10;99.90;;;;;;5011412;28;20107;-58
2024/02/11 01:06:24;;;;;;;4.53;1.65;;;22.10;99.90;;;;;;5012125;28;20021;-57
2024/02/11 01:08:50;;;;;;;2.50;1.70;;;22.10;99.90;;;;;;5012002;28;20029;-57
2024/02/11 01:11:18;;;;;;;4.97;1.42;;;22.10;99.90;;;;;;5010737;28;20371;-60
2024/02/11 01:13:45;;;;;;;2.10;1.50;;;22.10;99.90;;;;;;5012196;28;20022;-61
2024/02/11 01:16:11;;;;;;;4.60;1.67;;;22.10;99.90;;;;;;5010683;28;20022;-61
2024/02/11 01:18:37;;;;;;;4.68;1.70;;;22.10;99.90;;;;;;5012277;28;20025;-58
2024/02/11 01:21:07;;;;;;;1.70;1.33;;;22.10;99.90;;;;;;5012173;28;20037;-60
2024/02/11 01:23:33;;;;;;;1.95;1.50;;;22.00;99.90;;;;;;5012128;28;20030;-61
2024/02/11 01:25:59;;;;;;;3.30;1.70;;;22.10;99.90;;;;;;5012117;28;20018;-61
2024/02/11 01:28:25;;;;;;;3.15;1.65;;;22.10;99.90;;;;;;5003781;28;20073;-62
2024/02/11 01:30:51;;;;;;;1.75;1.23;;;22.00;99.90;;;;;;5001549;28;20029;-61
2024/02/11 01:33:17;;;;;;;2.10;1.70;;;22.00;99.90;;;;;;4993063;28;20030;-62
2024/02/11 01:35:43;;;;;;;4.20;1.80;;;22.00;99.90;;;;;;5010006;28;20501;-61
2024/02/11 01:38:10;;;;;;;2.10;1.48;;;22.00;99.90;;;;;;5011148;28;20073;-59
2024/02/11 01:40:36;;;;;;;2.33;1.85;;;22.00;99.90;;;;;;5008909;28;20026;-56
2024/02/11 01:43:09;;;;;;;3.20;1.77;;;22.00;99.90;;;;;;4991913;28;20035;-56
2024/02/11 01:45:36;;;;;;;2.45;1.60;;;22.00;99.90;;;;;;5017954;28;20026;-58
2024/02/11 01:48:08;;;;;;;3.97;1.95;;;22.00;99.90;;;;;;5005202;28;20079;-57
2024/02/11 01:50:36;;;;;;;2.30;1.63;;;21.90;99.90;;;;;;4997392;28;20610;-58
2024/02/11 01:53:04;;;;;;;2.03;1.30;;;21.90;99.90;;;;;;4984128;28;20022;-57
2024/02/11 01:55:29;;;;;;;;;;;22.00;99.90;;;;;;4996967;28;20027;-59
2024/02/11 01:57:55;;;;;;;2.42;1.48;;;21.90;99.90;;;;;;4998391;28;20053;-59
2024/02/11 02:00:23;;;;;;;2.33;1.50;;;21.90;99.90;;;;;;5009071;23;20007;-47
2024/02/11 02:02:51;;;;;;;3.78;1.60;;;21.90;99.90;;;;;;5020223;28;20045;-47
2024/02/11 02:05:17;;;;;;;2.17;1.35;;;21.90;99.90;;;;;;5032276;28;20485;-47
2024/02/11 02:07:43;;;;;;;3.40;1.38;;;21.90;99.90;;;;;;5033359;28;20025;-46
2024/02/11 02:10:09;;;;;;;2.13;1.42;;;21.90;99.90;;;;;;5026803;28;20026;-46
2024/02/11 02:12:36;;;;;;;2.53;1.63;;;21.80;99.90;;;;;;5025111;28;20021;-45
2024/02/11 02:15:02;;;;;;;2.33;1.40;;;21.80;99.90;;;;;;5029390;28;20022;-44
2024/02/11 02:17:28;;;;;;;6.63;1.47;;;21.80;99.90;;;;;;5030327;28;20445;-45
2024/02/11 02:19:54;;;;;;;2.50;1.30;;;21.80;99.90;;;;;;5024960;28;20057;-45
2024/02/11 02:22:20;;;;;;;4.85;1.95;;;21.80;99.90;;;;;;5026369;28;20025;-45
2024/02/11 02:24:49;;;;;;;1.88;1.10;;;21.80;99.90;;;;;;5032920;28;20501;-46
2024/02/11 02:27:15;;;;;;;2.92;1.25;;;21.80;99.90;;;;;;5024460;28;20022;-48
2024/02/11 02:29:41;;;;;;;2.78;1.48;;;21.80;99.90;;;;;;5027969;28;20561;-47
2024/02/11 02:32:07;;;;;;;2.38;1.45;;;21.80;99.90;;;;;;5028854;28;20050;-48
2024/02/11 02:34:32;;;;;;;2.20;1.48;;;21.80;99.90;;;;;;5031914;28;20080;-47
2024/02/11 02:36:58;;;;;;;2.60;1.38;;;21.80;99.90;;;;;;5023047;28;20026;-47
2024/02/11 02:39:24;;;;;;;3.58;1.52;;;21.80;99.90;;;;;;5021369;28;20464;-45
2024/02/11 02:41:50;;;;;;;1.38;1.08;;;21.80;99.90;;;;;;5017445;28;20026;-46
2024/02/11 02:44:16;;;;;;;1.60;1.10;;;21.80;99.90;;;;;;5018345;28;20041;-48
2024/02/11 02:46:42;;;;;;;1.60;1.30;;;21.80;99.90;;;;;;5030863;28;20026;-49
2024/02/11 02:49:08;;;;;;;3.38;1.35;;;21.70;99.90;;;;;;5014789;28;20033;-48
2024/02/11 02:51:34;;;;;;;2.03;1.20;;;21.70;99.90;;;;;;5030165;28;20032;-49
2024/02/11 02:54:03;;;;;;;1.95;1.13;;;21.70;99.90;;;;;;5025562;28;20456;-48
2024/02/11 02:56:31;;;;;;;1.55;0.90;;;21.80;99.90;;;;;;5028544;28;20135;-48
2024/02/11 02:58:57;;;;;;;3.90;1.25;;;21.70;99.90;;;;;;5022384;28;20022;-47
2024/02/11 03:01:27;;;;;;;1.30;1.00;;;21.70;99.90;;;;;;5034697;28;20041;-48
2024/02/11 03:03:54;;;;;;;2.08;1.13;;;21.70;99.90;;;;;;5033132;28;20033;-47
2024/02/11 03:06:19;;;;;;;2.03;1.07;;;21.70;99.90;;;;;;5030262;28;20050;-47
2024/02/11 03:08:46;;;;;;;2.10;1.02;;;21.70;99.90;;;;;;5031230;28;20056;-47
2024/02/11 03:11:11;;;;;;;1.63;0.95;;;21.70;99.90;;;;;;5027007;28;20022;-46
2024/02/11 03:13:37;;;;;;;1.80;1.10;;;21.70;99.90;;;;;;5027884;28;20436;-49
2024/02/11 03:16:03;;;;;;;4.10;1.25;;;21.60;99.90;;;;;;5028312;28;20017;-49
2024/02/11 03:18:29;;;;;;;3.97;1.10;;;21.60;99.90;;;;;;5029192;28;20039;-47
2024/02/11 03:20:55;;;;;;;2.05;1.30;;;21.60;99.90;;;;;;5029306;28;20026;-47
2024/02/11 03:23:21;;;;;;;2.30;1.02;;;21.60;99.90;;;;;;5022993;28;20038;-48
2024/02/11 03:25:46;;;;;;;1.63;1.10;;;21.60;99.90;;;;;;5025848;28;20029;-49
2024/02/11 03:28:13;;;;;;;2.25;1.15;;;21.60;99.90;;;;;;5018384;28;20026;-48
2024/02/11 03:30:38;;;;;;;2.35;0.90;;;21.60;99.90;;;;;;5030608;28;20028;-48
2024/02/11 03:33:04;;;;;;;2.80;1.10;;;21.60;99.90;;;;;;5016926;28;20026;-47
2024/02/11 03:35:30;;;;;;;2.85;1.42;;;21.50;99.90;;;;;;5018227;28;20021;-47
2024/02/11 03:37:56;;;;;;;2.85;1.25;;;21.50;99.90;;;;;;5015293;28;20093;-47
2024/02/11 03:40:23;;;;;;;2.17;1.23;;;21.50;99.90;;;;;;5015509;28;20429;-47
2024/02/11 03:42:50;;;;;;;2.55;1.13;;;21.50;99.90;;;;;;5031963;28;20420;-47
2024/02/11 03:45:18;;;;;;;5.03;1.23;;;21.50;99.90;;;;;;5029275;28;20108;-48
2024/02/11 03:47:45;;;;;;;3.10;1.20;;;21.50;99.90;;;;;;5019563;28;20017;-50
2024/02/11 03:50:13;;;;;;;3.58;1.38;;;21.50;99.90;;;;;;5027832;28;20386;-49
2024/02/11 03:52:39;;;;;;;2.75;1.45;;;21.50;99.90;;;;;;5030960;28;20354;-47
2024/02/11 03:55:11;;;;;;;5.18;1.20;;;21.50;99.90;;;;;;5037179;28;20030;-49
2024/02/11 03:57:40;;;;;;;5.32;1.15;;;21.50;99.90;;;;;;5028933;28;20028;-49
2024/02/11 04:02:52;;;;;;;1.58;0.90;;;21.50;99.90;;;;;;5018923;28;20046;-58
2024/02/11 04:05:20;;;;;;;1.92;1.10;;;21.50;99.90;;;;;;5023910;28;20515;-57
2024/02/11 04:07:46;;;;;;;;;;;21.50;99.90;;;;;;5022234;28;20029;-57
2024/02/11 04:10:19;;;;;;;1.95;1.00;;;21.40;99.90;;;;;;5025043;28;20344;-57
2024/02/11 04:12:54;;;;;;;1.88;1.10;;;21.40;99.90;;;;;;5017425;28;20026;-57
2024/02/11 04:15:22;;;;;;;1.30;0.93;;;21.40;99.90;;;;;;5027855;28;20025;-57
2024/02/11 04:17:49;;;;;;;1.23;0.93;;;21.40;99.90;;;;;;5036937;28;20033;-57
2024/02/11 04:20:23;;;;;;;3.15;1.35;;;21.40;99.90;;;;;;5032520;28;20025;-57
2024/02/11 04:22:58;;;;;;;3.47;1.10;;;21.30;99.90;;;;;;5025184;28;20040;-58
2024/02/11 04:25:34;;;;;;;4.97;1.10;;;21.40;99.90;;;;;;5022689;28;20065;-56
2024/02/11 04:28:13;;;;;;;2.50;1.10;;;21.30;99.90;;;;;;5030430;28;20022;-56
2024/02/11 04:30:42;;;;;;;3.58;0.90;;;21.30;99.90;;;;;;5044380;28;20025;-57
2024/02/11 04:33:08;;;;;;;2.30;1.08;;;21.30;99.90;;;;;;5039844;28;20465;-57
2024/02/11 04:35:35;;;;;;;3.40;1.35;;;21.30;99.90;;;;;;5042696;28;20092;-56
2024/02/11 04:38:07;;;;;;;2.53;1.35;;;21.30;99.90;;;;;;5041572;28;20025;-56
2024/02/11 04:40:34;;;;;;;3.03;1.20;;;21.30;99.90;;;;;;5041814;28;20067;-55
2024/02/11 04:43:01;;;;;;;2.50;1.42;;;21.30;99.90;;;;;;5042263;28;20510;-55
2024/02/11 04:45:27;;;;;;;1.73;0.57;;;21.20;99.90;;;;;;5040190;28;20030;-56
2024/02/11 04:47:58;;;;;;;1.42;1.02;;;21.20;99.90;;;;;;5042956;28;20021;-56
2024/02/11 04:50:28;;;;;;;3.45;1.30;;;21.20;99.90;;;;;;5024581;28;20125;-56
2024/02/11 04:52:56;;;;;;;3.50;1.65;;;21.20;99.90;;;;;;5025551;28;20060;-55
2024/02/11 04:55:40;;;;;;;;;;;21.20;99.90;;;;;;5014421;28;20100;-56
2024/02/11 04:58:18;;;;;;;3.35;1.08;;;21.20;99.90;;;;;;5023689;28;19912;-56
2024/02/11 05:00:49;;;;;;;2.15;1.00;;;21.20;99.90;;;;;;5033799;28;20840;-56
2024/02/11 05:03:18;;;;;;;3.55;1.20;;;21.20;99.90;;;;;;5010575;28;20528;-56
2024/02/11 05:05:44;;;;;;;3.90;1.23;;;21.20;99.90;;;;;;5011067;28;20061;-57
2024/02/11 05:08:16;;;;;;;5.05;1.17;;;21.10;99.90;;;;;;5012047;28;20112;-57
2024/02/11 05:10:43;;;;;;;2.17;1.08;;;21.10;99.90;;;;;;5012090;28;20015;-56
2024/02/11 05:13:11;;;;;;;6.68;1.55;;;21.10;99.90;;;;;;5012082;28;20033;-57
2024/02/11 05:15:41;;;;;;;2.05;1.08;;;21.10;99.90;;;;;;5012141;28;20477;-57
2024/02/11 05:18:11;;;;;;;4.10;1.25;;;21.10;99.90;;;;;;5012043;28;20045;-56
2024/02/11 05:20:37;;;;;;;1.95;0.93;;;21.10;99.90;;;;;;5011973;28;20021;-57
2024/02/11 05:23:09;;;;;;;1.85;0.95;;;21.10;99.90;;;;;;5011982;28;20052;-57
2024/02/11 05:25:36;;;;;;;3.15;1.00;;;21.10;99.90;;;;;;5010557;28;20064;-56
2024/02/11 05:28:05;;;;;;;2.53;1.23;;;21.00;99.90;;;;;;5012068;28;20370;-57
2024/02/11 05:30:38;;;;;;;1.63;0.80;;;21.00;99.90;;;;;;5011843;28;20417;-56
2024/02/11 05:33:06;;;;;;;2.45;1.55;;;21.00;99.90;;;;;;5011857;28;20034;-56
2024/02/11 05:35:35;;;;;;;3.17;1.13;;;21.00;99.90;;;;;;5012826;28;20022;-57
2024/02/11 05:38:01;;;;;;;1.77;0.85;;;21.00;99.90;;;;;;5015872;28;20470;-57
2024/02/11 05:40:28;;;;;;;2.70;1.05;;;21.00;99.90;;;;;;5015855;28;20048;-57
2024/02/11 05:42:55;;;;;;;2.90;1.20;;;21.00;99.90;;;;;;5015789;28;20033;-57
2024/02/11 05:45:21;;;;;;;2.85;0.98;;;21.00;99.90;;;;;;5015745;28;20358;-57
2024/02/11 05:47:51;;;;;;;6.38;1.52;;;21.00;99.90;;;;;;5015726;28;20093;-56
2024/02/11 05:50:17;;;;;;;2.00;0.93;;;21.00;99.90;;;;;;5015624;28;20034;-57
2024/02/11 05:52:44;;;;;;;5.00;1.02;;;21.00;99.90;;;;;;5015530;28;20537;-57
2024/02/11 05:55:11;;;;;;;1.60;1.00;;;21.00;99.90;;;;;;5015686;28;20101;-56
2024/02/11 05:57:39;;;;;;;4.55;1.38;;;21.00;99.90;;;;;;5015467;28;20548;-56
2024/02/11 06:00:12;;;;;;;1.77;0.95;;;20.90;99.90;;;;;;5013540;28;20057;-55
2024/02/11 06:02:42;;;;;;;5.07;1.02;;;20.90;99.90;;;;;;5027902;28;20111;-56
2024/02/11 06:05:12;;;;;;;1.42;0.80;;;20.90;99.90;;;;;;5047579;28;20032;-56
2024/02/11 06:08:01;;;;;;;2.17;0.70;;;20.90;99.90;;;;;;5042565;28;20064;-56
2024/02/11 06:10:30;;;;;;;2.63;1.30;;;20.90;99.90;;;;;;5029355;28;20472;-56
2024/02/11 06:12:59;;;;;;;2.00;0.90;;;20.90;99.90;;;;;;5035393;28;20025;-56
2024/02/11 06:15:27;;;;;;;4.65;1.10;;;20.90;99.90;;;;;;5027141;28;20029;-56
2024/02/11 06:17:53;;;;;;;4.35;1.15;;;20.90;99.90;;;;;;5043190;28;20013;-56
2024/02/11 06:20:20;;;;;;;2.47;1.00;;;20.90;99.90;;;;;;5046458;28;20016;-56
2024/02/11 06:22:47;;;;;;;1.60;0.90;;;20.90;99.90;;;;;;5044859;28;20088;-56
2024/02/11 06:25:15;;;;;;;2.30;1.20;;;20.90;99.90;;;;;;5044602;28;20056;-57
2024/02/11 06:27:42;;;;;;;2.80;1.02;;;20.90;99.90;;;;;;5046349;28;20117;-57
2024/02/11 06:30:14;;;;;;;5.90;1.25;;;20.90;99.90;;;;;;5043148;28;20018;-56
2024/02/11 06:32:50;;;;;;;2.35;0.90;;;20.90;99.90;;;;;;5046088;28;20017;-56
2024/02/11 06:35:18;;;;;;;3.80;1.10;;;20.90;99.90;;;;;;5043395;28;20032;-56
2024/02/11 06:37:47;;;;;;;4.30;1.15;;;20.90;99.90;;;;;;5047330;28;20384;-56
2024/02/11 06:40:14;;;;;;;3.10;0.95;;;20.80;99.90;;;;;;5041912;28;20017;-56
2024/02/11 06:42:50;;;;;;;2.65;0.75;;;20.80;99.90;;;;;;5047734;28;20092;-56
2024/02/11 06:45:17;;;;;;;3.67;1.15;;;20.80;99.90;;;;;;5034569;28;20048;-56
2024/02/11 06:47:44;;;;;;;2.08;1.17;;;20.80;99.90;;;;;;5025524;28;20013;-56
2024/02/11 06:50:18;;;;;;;4.72;1.33;;;20.80;99.90;;;;;;5042835;28;20030;-57
2024/02/11 06:52:48;;;;;;;3.85;1.02;;;20.80;99.90;;;;;;5046661;28;20024;-57
2024/02/11 06:55:18;;;;;;;1.52;0.82;;;20.80;99.90;;;;;;5043011;28;20074;-57
2024/02/11 06:57:44;;;;;;;2.90;0.95;;;20.80;99.90;;;;;;5045726;28;20032;-57
2024/02/11 07:00:12;;;;;;;1.50;0.95;;;20.80;99.90;;;;;;5044197;28;20469;-57
2024/02/11 07:02:39;;;;;;;2.17;1.05;;;20.70;99.90;;;;;;5025265;28;20046;-57
2024/02/11 07:05:05;;;;;;;2.50;0.93;;;20.70;99.90;;;;;;5014194;28;20029;-57
2024/02/11 07:07:33;;;;;;;3.05;0.60;;;20.70;99.90;;;;;;5014479;28;20481;-57
2024/02/11 07:09:59;;;;;;;1.63;0.70;;;20.70;99.90;;;;;;5014247;28;20020;-57
2024/02/11 07:12:25;;;;;;;1.30;0.65;;;20.70;99.90;;;;;;5012875;28;20039;-57
2024/02/11 07:14:51;;;;;;;3.38;1.27;;;20.70;99.90;;;;;;5013872;28;20080;-58
2024/02/11 07:17:17;;;;;;;1.33;0.80;;;20.70;99.90;;;;;;5014063;28;20029;-57
2024/02/11 07:19:43;;;;;;;1.52;0.88;;;20.70;99.90;;;;;;5012743;28;20049;-56
2024/02/11 07:22:09;;;;;;;0.90;0.60;;;20.70;99.90;;;;;;5013862;28;20024;-57
2024/02/11 07:24:35;;;;;;;1.50;0.70;;;20.70;99.90;;;;;;5013948;28;20417;-57
2024/02/11 07:27:01;;;;;;;2.33;1.13;;;20.70;99.90;;;;;;5013904;28;20433;-57
2024/02/11 07:29:28;;;;;;;2.60;0.70;;;20.70;99.90;;;;;;5013889;28;20034;-57
2024/02/11 07:31:58;;;;;;;2.33;0.80;;;20.70;99.90;;;;;;5013929;28;20352;-56
2024/02/11 07:34:24;;;;;;;1.85;0.73;;;20.70;99.90;;;;;;5013726;28;20022;-56
2024/02/11 07:36:50;;;;;;;1.65;0.75;;;20.70;99.90;;;;;;5012273;28;20026;-56
2024/02/11 07:39:16;;;;;;;2.80;0.85;;;20.70;99.90;;;;;;5013542;28;20022;-57
2024/02/11 07:41:43;;;;;;;1.83;0.93;;;20.70;99.90;;;;;;5013504;28;20026;-57
2024/02/11 07:44:12;;;;;;;2.08;1.20;;;20.70;99.90;;;;;;5012072;28;20029;-57
2024/02/11 07:46:37;;;;;;;2.58;0.70;;;20.70;99.90;;;;;;5013671;28;20030;-57
2024/02/11 07:49:06;;;;;;;2.38;0.93;;;20.70;99.90;;;;;;5012199;28;20088;-57
2024/02/11 07:51:32;;;;;;;1.77;0.77;;;20.60;99.90;;;;;;5013568;28;20092;-58
2024/02/11 07:53:58;;;;;;;2.15;0.65;;;20.60;99.90;;;;;;5013508;28;20030;-58
2024/02/11 07:56:25;;;;;;;2.95;0.93;;;20.60;99.90;;;;;;5013791;28;20112;-58
2024/02/11 07:58:51;;;;;;;1.67;0.60;;;20.60;99.90;;;;;;5013371;28;20029;-57
2024/02/11 08:01:17;;;;;;;2.42;0.80;;;20.60;99.90;;;;;;5012973;28;20037;-58
2024/02/11 08:03:43;;;;;;;2.40;0.82;;;20.60;99.90;;;;;;5011789;28;20033;-56
2024/02/11 08:06:09;;;;;;;1.65;0.80;;;20.60;99.90;;;;;;5013282;28;20018;-57
2024/02/11 08:08:38;;;;;;;1.45;0.73;;;20.60;99.90;;;;;;5013020;28;20021;-56
2024/02/11 08:11:05;;;;;;;4.88;0.68;;;20.60;99.90;;;;;;5013077;28;20096;-57
2024/02/11 08:13:32;;;;;;;1.73;0.80;;;20.60;99.90;;;;;;5013092;28;20420;-56
2024/02/11 08:16:00;;;;;;;1.02;0.60;;;20.60;99.90;;;;;;5012997;28;20056;-57
2024/02/11 08:18:26;;;;;;;;;;;20.60;99.90;;;;;;5012107;28;20014;-56
2024/02/11 08:20:51;;;;;;;3.10;0.75;;;20.60;99.90;;;;;;5012893;28;20254;-57
2024/02/11 08:23:17;;;;;;;1.90;0.85;;;20.60;99.90;;;;;;5012671;28;20034;-57
2024/02/11 08:25:44;;;;;;;3.75;0.93;;;20.60;99.90;;;;;;5011490;28;20054;-56
2024/02/11 08:28:09;;;;;;;0.95;0.70;;;20.50;99.90;;;;;;5013651;28;20021;-57
2024/02/11 08:30:36;;;;;;;5.68;0.90;;;20.50;99.90;;;;;;5042918;28;20025;-57
2024/02/11 08:33:02;;;;;;;1.73;0.73;;;20.50;99.90;;;;;;5031090;28;20470;-57
2024/02/11 08:35:27;;;;;;;4.40;0.90;;;20.50;99.90;;;;;;5032507;28;20422;-56
2024/02/11 08:37:55;;;;;;;2.25;0.68;;;20.50;99.90;;;;;;5032346;28;20127;-57
2024/02/11 08:40:21;;;;;;;2.17;1.10;;;20.50;99.90;;;;;;5032148;28;20100;-56
2024/02/11 08:42:47;;;;;;;4.38;1.25;;;20.50;99.90;;;;;;5030448;28;20028;-56
2024/02/11 08:45:14;;;;;;;2.00;0.70;;;20.50;99.90;;;;;;5031639;28;20025;-56
2024/02/11 08:47:40;;;;;;;3.35;0.65;;;20.50;99.90;;;;;;5032031;28;20469;-56
2024/02/11 08:50:06;;;;;;;1.67;0.93;;;20.50;99.90;;;;;;5032157;28;20040;-56
2024/02/11 08:52:32;;;;;;;2.47;0.95;;;20.50;99.90;;;;;;5030728;28;20018;-56
2024/02/11 08:54:59;;;;;;;2.42;0.93;;;20.50;99.90;;;;;;5031971;28;20025;-56
2024/02/11 08:57:26;;;;;;;1.90;0.70;;;20.50;99.90;;;;;;5031881;28;20029;-56
2024/02/11 08:59:55;;;;;;;;;;;20.50;99.90;;;;;;5032429;28;20013;-56
2024/02/11 09:02:26;;;;;;;2.33;1.10;;;20.50;99.90;;;;;;5021514;28;19917;-56
2024/02/11 09:04:55;;;;;;;1.95;0.93;;;20.50;99.90;;;;;;5011974;28;20029;-56
2024/02/11 09:07:22;;;;;;;3.13;1.30;;;20.50;99.90;;;;;;5012262;28;20109;-56
2024/02/11 09:09:49;;;;;;;2.58;1.52;;;20.50;99.90;;;;;;5010497;28;20022;-56
2024/02/11 09:12:15;;;;;;;2.10;1.08;;;20.50;99.90;;;;;;5012240;28;20466;-56
2024/02/11 09:14:43;;;;;;;3.40;1.00;;;20.50;99.90;;;;;;5010840;28;20030;-56
2024/02/11 09:17:11;;;;;;;2.80;1.10;;;20.50;99.90;;;;;;5012307;28;20097;-57
2024/02/11 09:19:37;;;;;;;3.00;1.25;;;20.50;99.90;;;;;;5012075;28;20022;-57
2024/02/11 09:22:05;;;;;;;1.33;0.93;;;20.50;99.90;;;;;;5010730;28;20022;-56
2024/02/11 09:24:33;;;;;;;1.75;0.80;;;20.50;99.90;;;;;;5012187;28;20034;-57
2024/02/11 09:26:59;;;;;;;3.85;1.10;;;20.50;99.90;;;;;;5011920;28;20037;-57
2024/02/11 09:29:26;;;;;;;1.70;0.90;;;20.50;99.90;;;;;;5012120;28;20034;-57
2024/02/11 09:31:52;;;;;;;4.40;1.10;;;20.50;99.90;;;;;;5011948;28;20022;-57
2024/02/11 09:34:18;;;;;;;3.22;1.20;;;20.50;99.90;;;;;;5012046;28;20034;-57
2024/02/11 09:36:44;;;;;;;2.25;1.20;;;20.50;99.90;;;;;;5011859;28;20430;-57
2024/02/11 09:39:16;;;;;;;1.98;1.02;;;20.50;99.90;;;;;;5011746;28;20018;-57
2024/02/11 09:41:42;;;;;;;1.92;0.90;;;20.50;99.90;;;;;;5011969;28;20049;-57
2024/02/11 09:44:12;;;;;;;2.00;1.27;;;20.50;99.90;;;;;;5011669;28;20062;-57
2024/02/11 09:46:41;;;;;;;2.00;0.68;;;20.60;99.90;;;;;;5011791;28;20022;-59
2024/02/11 09:49:22;;;;;;;2.58;0.98;;;20.60;99.90;;;;;;5011891;28;20050;-58
2024/02/11 09:51:49;;;;;;;1.75;1.10;;;20.50;99.90;;;;;;5011802;28;20029;-58
2024/02/11 09:54:16;;;;;;;1.08;0.80;;;20.60;99.90;;;;;;5011912;28;20034;-58
2024/02/11 09:56:43;;;;;;;2.63;1.35;;;20.60;99.90;;;;;;5011977;28;20026;-58
2024/02/11 09:59:12;;;;;;;2.90;1.23;;;20.60;99.90;;;;;;5011580;28;20033;-57
2024/02/11 10:01:41;;;;;;;2.53;1.45;;;20.60;99.90;;;;;;5011520;28;20283;-57
2024/02/11 10:04:08;;;;;;;2.35;1.40;;;20.60;99.90;;;;;;5011755;28;20034;-56
2024/02/11 10:06:42;;;;;;;2.80;1.50;;;20.60;99.90;;;;;;5011721;28;20029;-59
2024/02/11 10:09:12;;;;;;;3.20;1.25;;;20.60;99.90;;;;;;5011636;28;20037;-59
2024/02/11 10:11:39;;;;;;;3.30;1.40;;;20.60;99.90;;;;;;5010518;28;20020;-59
2024/02/11 10:14:11;;;;;;;2.40;1.50;;;20.60;99.90;;;;;;5011794;28;20397;-57
2024/02/11 10:16:38;;;;;;;2.70;1.45;;;20.60;99.90;;;;;;5011740;28;20068;-60
2024/02/11 10:19:05;;;;;;;2.53;1.67;;;20.60;99.90;;;;;;5011706;28;20022;-59
2024/02/11 10:21:31;;;;;;;2.15;1.42;;;20.60;99.90;;;;;;5010229;28;20022;-59
2024/02/11 10:23:57;;;;;;;3.33;1.27;;;20.60;99.90;;;;;;5014436;28;20034;-60
2024/02/11 10:26:22;;;;;;;2.22;1.35;;;20.60;99.90;;;;;;5013687;28;20037;-59
2024/02/11 10:28:48;;;;;;;2.83;1.40;;;20.60;99.90;;;;;;5013550;28;20025;-58
2024/02/11 10:31:14;;;;;;;3.78;1.73;;;20.60;99.90;;;;;;5015064;28;20057;-58
2024/02/11 10:33:41;;;;;;;6.25;1.52;;;20.60;99.90;;;;;;5014725;28;20025;-58
2024/02/11 10:36:07;;;;;;;2.80;1.80;;;20.60;99.90;;;;;;5015164;28;20493;-59
2024/02/11 10:38:34;;;;;;;2.90;1.52;;;20.60;99.90;;;;;;5014613;28;20030;-58
2024/02/11 10:41:03;;;;;;;3.10;1.53;;;20.60;99.90;;;;;;5014944;28;20457;-57
2024/02/11 10:43:33;;;;;;;2.80;1.52;;;20.60;99.90;;;;;;5014619;28;20037;-57
2024/02/11 10:46:00;;;;;;;3.50;1.83;;;20.60;99.90;;;;;;5014447;28;20080;-57
2024/02/11 10:48:26;;;;;;;3.28;1.77;;;20.50;99.90;;;;;;5014736;28;20036;-57
2024/02/11 10:51:07;;;;;;;3.95;2.05;;;20.60;99.90;;;;;;5014757;28;20024;-57
2024/02/11 10:53:36;;;;;;;3.00;1.80;;;20.50;99.90;;;;;;5014602;28;20018;-59
2024/02/11 10:56:04;;;;;;;2.97;1.70;;;20.60;99.90;;;;;;5014340;28;20049;-58
2024/02/11 10:58:37;;;;;;;2.42;2.03;;;20.60;99.90;;;;;;5014437;28;20053;-59
2024/02/11 11:01:05;;;;;;;3.55;1.67;;;20.60;99.90;;;;;;5014086;28;20537;-57
2024/02/11 11:03:36;;;;;;;4.28;2.15;;;20.50;99.90;;;;;;5014141;28;20493;-57
2024/02/11 11:06:02;;;;;;;2.85;1.63;;;20.60;99.90;;;;;;5014185;28;20022;-58
2024/02/11 11:08:30;;;;;;;2.45;1.52;;;20.60;99.90;;;;;;5014016;28;20017;-58
2024/02/11 11:10:59;;;;;;;3.97;1.92;;;20.60;99.90;;;;;;5014186;28;20041;-57
2024/02/11 11:13:25;;;;;;;3.33;1.80;;;20.60;99.90;;;;;;5012783;28;20030;-57
2024/02/11 11:15:52;;;;;;;4.57;1.77;;;20.60;99.90;;;;;;5014213;28;20168;-57
2024/02/11 11:18:22;;;;;;;3.08;1.58;;;20.60;99.90;;;;;;5012931;28;20041;-57
2024/02/11 11:20:52;;;;;;;3.88;1.50;;;20.60;99.90;;;;;;5014024;28;20022;-57
2024/02/11 11:23:18;;;;;;;4.35;1.60;;;20.60;99.90;;;;;;5013780;28;20058;-58
2024/02/11 11:25:44;;;;;;;3.42;1.85;;;20.60;99.90;;;;;;5014011;28;20056;-57
2024/02/11 11:28:10;;;;;;;2.90;1.90;;;20.60;99.90;;;;;;5014132;28;20461;-58
2024/02/11 11:30:36;;;;;;;3.58;1.95;;;20.60;99.90;;;;;;5014073;28;20022;-58
2024/02/11 11:33:04;;;;;;;4.80;1.92;;;20.60;99.90;;;;;;5013538;28;20469;-57
2024/02/11 11:35:30;;;;;;;2.65;1.63;;;20.60;99.90;;;;;;5013703;28;20429;-57
2024/02/11 11:38:02;;;;;;;4.57;2.17;;;20.70;99.90;;;;;;5013779;28;20014;-58
2024/02/11 11:40:36;;;;;;;3.28;1.92;;;20.70;99.90;;;;;;5013648;28;20026;-57
2024/02/11 11:43:13;;;;;;;3.72;1.77;;;20.70;99.90;;;;;;5013544;28;20014;-57
2024/02/11 11:45:51;;;;;;;3.67;1.60;;;20.70;99.90;;;;;;5013695;28;20038;-56
2024/02/11 11:48:17;;;;;;;5.53;2.10;;;20.70;99.90;;;;;;5015082;28;20096;-57
2024/02/11 11:50:43;;;;;;;3.60;1.73;;;20.70;99.90;;;;;;5013286;28;20049;-56
2024/02/11 11:53:09;;;;;;;2.40;1.70;;;20.70;99.90;;;;;;5013777;28;20057;-56
2024/02/11 11:55:36;;;;;;;5.43;1.52;;;20.70;99.90;;;;;;5013150;28;20022;-58
2024/02/11 11:58:02;;;;;;;;;;;20.70;99.90;;;;;;5020616;28;20101;-56
2024/02/11 12:00:28;;;;;;;2.58;1.70;;;20.80;99.90;;;;;;5028688;28;20058;-56
2024/02/11 12:02:55;;;;;;;3.75;2.03;;;20.80;99.90;;;;;;5021370;28;20030;-57
2024/02/11 12:05:21;;;;;;;;;;;20.80;99.90;;;;;;5013831;28;20022;-56
2024/02/11 12:07:48;;;;;;;3.22;2.03;;;20.80;99.90;;;;;;5012882;28;19905;-58
2024/02/11 12:10:14;;;;;;;4.50;2.05;;;20.90;99.90;;;;;;5012158;28;20018;-56
2024/02/11 12:12:40;;;;;;;3.50;1.48;;;20.90;99.90;;;;;;5012024;28;20022;-60
2024/02/11 12:15:07;;;;;;;3.67;1.80;;;20.90;99.90;;;;;;5013039;28;20018;-57
2024/02/11 12:17:35;;;;;;;5.78;2.92;;;20.90;99.90;;;;;;5013046;28;20030;-58
2024/02/11 12:20:01;;;;;;;;;;;20.80;99.90;;;;;;5013318;28;20534;-57
2024/02/11 12:22:27;;;;;;;6.90;2.45;;;20.90;99.90;;;;;;5012925;28;19909;-60
2024/02/11 12:24:53;;;;;;;5.32;2.10;;;20.90;99.90;;;;;;5012829;28;20042;-60
2024/02/11 12:27:19;;;;;;;4.60;2.05;;;20.90;99.90;;;;;;5012628;28;20042;-59
2024/02/11 12:29:56;;;;;;;8.23;2.60;;;20.90;99.90;;;;;;5011385;28;20063;-55
2024/02/11 12:32:22;;;;;;;3.53;1.98;;;20.90;99.90;;;;;;5012686;28;20018;-57
2024/02/11 12:34:48;;;;;;;2.85;2.15;;;20.90;99.90;;;;;;5011457;28;20033;-58
2024/02/11 12:37:15;;;;;;;3.92;1.75;;;20.90;99.90;;;;;;5012723;28;20413;-58
2024/02/11 12:39:42;;;;;;;6.67;2.40;;;20.90;99.90;;;;;;5011434;28;20105;-57
2024/02/11 12:42:09;;;;;;;;;;;20.80;99.90;;;;;;5013015;28;20267;-58
2024/02/11 12:44:36;;;;;;;4.07;2.65;;;20.80;99.90;;;;;;5012446;28;19913;-58
2024/02/11 12:47:02;;;;;;;;;;;20.80;99.90;;;;;;5012459;28;20386;-57
2024/02/11 12:49:29;;;;;;;3.35;2.55;;;20.90;99.90;;;;;;5012529;28;19992;-57
2024/02/11 12:51:55;;;;;;;7.15;2.50;;;20.80;99.90;;;;;;5012524;28;20524;-57
2024/02/11 12:54:21;;;;;;;3.83;1.77;;;20.80;99.90;;;;;;5012348;28;20018;-57